sensor_id;sensor_type;location;lat;lon;timestamp;temperature;humidity
36372;DHT22;22398;51.346;12.372;2024-03-02T00:03:31;8.40;99.90
36372;DHT22;22398;51.346;12.372;2024-03-02T00:08:35;8.40;99.90
36372;DHT22;22398;51.346;12.372;2024-03-02T00:13:39;8.50;99.90
36372;DHT22;22398;51.346;12.372;2024-03-02T00:18:43;8.50;99.90
36372;DHT22;22398;51.346;12.372;2024-03-02T00:23:48;8.50;99.90
36372;DHT22;22398;51.346;12.372;2024-03-02T00:28:55;8.30;99.90
36372;DHT22;22398;51.346;12.372;2024-03-02T00:34:06;8.30;99.90
36372;DHT22;22398;51.346;12.372;2024-03-02T00:39:12;8.20;99.90
36372;DHT22;22398;51.346;12.372;2024-03-02T00:44:19;8.10;99.90
36372;DHT22;22398;51.346;12.372;2024-03-02T00:49:24;8.10;99.90
36372;DHT22;22398;51.346;12.372;2024-03-02T00:54:28;8.10;99.90
36372;DHT22;22398;51.346;12.372;2024-03-02T00:59:32;8.20;99.90
36372;DHT22;22398;51.346;12.372;2024-03-02T01:04:37;8.30;99.90
36372;DHT22;22398;51.346;12.372;2024-03-02T01:09:40;8.30;99.90
36372;DHT22;22398;51.346;12.372;2024-03-02T01:14:43;8.20;99.90
36372;DHT22;22398;51.346;12.372;2024-03-02T01:19:48;8.20;99.90
36372;DHT22;22398;51.346;12.372;2024-03-02T01:24:52;8.20;99.90
36372;DHT22;22398;51.346;12.372;2024-03-02T01:29:55;8.20;99.90
36372;DHT22;22398;51.346;12.372;2024-03-02T01:35:00;8.10;99.90
36372;DHT22;22398;51.346;12.372;2024-03-02T01:40:04;8.10;99.90
36372;DHT22;22398;51.346;12.372;2024-03-02T01:45:11;8.10;99.90
36372;DHT22;22398;51.346;12.372;2024-03-02T01:50:16;8.10;99.90
36372;DHT22;22398;51.346;12.372;2024-03-02T01:55:27;8.10;99.90
36372;DHT22;22398;51.346;12.372;2024-03-02T02:00:32;8.10;99.90
36372;DHT22;22398;51.346;12.372;2024-03-02T02:05:37;8.20;99.90
36372;DHT22;22398;51.346;12.372;2024-03-02T02:10:40;8.20;99.90
36372;DHT22;22398;51.346;12.372;2024-03-02T02:15:44;8.20;99.90
36372;DHT22;22398;51.346;12.372;2024-03-02T02:20:49;8.20;99.90
36372;DHT22;22398;51.346;12.372;2024-03-02T02:25:54;8.30;99.90
36372;DHT22;22398;51.346;12.372;2024-03-02T02:30:57;8.30;99.90
36372;DHT22;22398;51.346;12.372;2024-03-02T02:36:03;8.30;99.90
36372;DHT22;22398;51.346;12.372;2024-03-02T02:41:08;8.40;99.90
36372;DHT22;22398;51.346;12.372;2024-03-02T02:46:12;8.30;99.90
36372;DHT22;22398;51.346;12.372;2024-03-02T02:51:15;8.30;99.90
36372;DHT22;22398;51.346;12.372;2024-03-02T02:56:20;8.30;99.90
36372;DHT22;22398;51.346;12.372;2024-03-02T03:01:24;8.40;99.90
36372;DHT22;22398;51.346;12.372;2024-03-02T03:06:27;8.30;99.90
36372;DHT22;22398;51.346;12.372;2024-03-02T03:11:32;8.30;99.90
36372;DHT22;22398;51.346;12.372;2024-03-02T03:16:35;8.20;99.90
36372;DHT22;22398;51.346;12.372;2024-03-02T03:21:39;8.20;99.90
36372;DHT22;22398;51.346;12.372;2024-03-02T03:26:43;8.20;99.90
36372;DHT22;22398;51.346;12.372;2024-03-02T03:31:47;8.20;99.90
36372;DHT22;22398;51.346;12.372;2024-03-02T03:36:50;8.20;99.90
36372;DHT22;22398;51.346;12.372;2024-03-02T03:41:55;8.20;99.90
36372;DHT22;22398;51.346;12.372;2024-03-02T03:46:58;8.20;99.90
36372;DHT22;22398;51.346;12.372;2024-03-02T03:52:03;8.20;99.90
36372;DHT22;22398;51.346;12.372;2024-03-02T03:57:08;8.10;99.90
36372;DHT22;22398;51.346;12.372;2024-03-02T04:02:11;8.10;99.90
36372;DHT22;22398;51.346;12.372;2024-03-02T04:07:15;8.20;99.90
36372;DHT22;22398;51.346;12.372;2024-03-02T04:12:19;8.10;99.90
36372;DHT22;22398;51.346;12.372;2024-03-02T04:17:24;8.10;99.90
36372;DHT22;22398;51.346;12.372;2024-03-02T04:22:27;8.10;99.90
36372;DHT22;22398;51.346;12.372;2024-03-02T04:27:32;8.10;99.90
36372;DHT22;22398;51.346;12.372;2024-03-02T04:32:36;8.00;99.90
36372;DHT22;22398;51.346;12.372;2024-03-02T04:37:40;7.90;99.90
36372;DHT22;22398;51.346;12.372;2024-03-02T04:42:45;7.90;99.90
36372;DHT22;22398;51.346;12.372;2024-03-02T04:47:49;7.90;99.90
36372;DHT22;22398;51.346;12.372;2024-03-02T04:52:52;7.80;99.90
36372;DHT22;22398;51.346;12.372;2024-03-02T04:57:57;7.80;99.90
36372;DHT22;22398;51.346;12.372;2024-03-02T05:03:01;7.80;99.90
36372;DHT22;22398;51.346;12.372;2024-03-02T05:08:05;7.70;99.90
36372;DHT22;22398;51.346;12.372;2024-03-02T05:13:10;7.70;99.90
36372;DHT22;22398;51.346;12.372;2024-03-02T05:18:13;7.70;99.90
36372;DHT22;22398;51.346;12.372;2024-03-02T05:23:17;7.70;99.90
36372;DHT22;22398;51.346;12.372;2024-03-02T05:28:21;7.70;99.90
36372;DHT22;22398;51.346;12.372;2024-03-02T05:33:25;7.70;99.90
36372;DHT22;22398;51.346;12.372;2024-03-02T05:38:28;7.80;99.90
36372;DHT22;22398;51.346;12.372;2024-03-02T05:43:33;7.80;99.90
36372;DHT22;22398;51.346;12.372;2024-03-02T05:48:37;7.90;99.90
36372;DHT22;22398;51.346;12.372;2024-03-02T05:53:40;7.90;99.90
36372;DHT22;22398;51.346;12.372;2024-03-02T05:58:45;8.00;99.90
36372;DHT22;22398;51.346;12.372;2024-03-02T06:03:59;8.10;99.90
36372;DHT22;22398;51.346;12.372;2024-03-02T06:09:03;8.10;99.90
36372;DHT22;22398;51.346;12.372;2024-03-02T06:14:11;8.20;99.90
36372;DHT22;22398;51.346;12.372;2024-03-02T06:19:15;8.30;99.90
36372;DHT22;22398;51.346;12.372;2024-03-02T06:24:18;8.40;99.90
36372;DHT22;22398;51.346;12.372;2024-03-02T06:29:23;8.40;99.90
36372;DHT22;22398;51.346;12.372;2024-03-02T06:34:26;8.50;99.90
36372;DHT22;22398;51.346;12.372;2024-03-02T06:39:30;8.60;99.90
36372;DHT22;22398;51.346;12.372;2024-03-02T06:44:37;8.60;99.90
36372;DHT22;22398;51.346;12.372;2024-03-02T06:49:40;8.70;99.90
36372;DHT22;22398;51.346;12.372;2024-03-02T06:54:44;8.70;99.90
36372;DHT22;22398;51.346;12.372;2024-03-02T06:59:49;8.80;99.90
36372;DHT22;22398;51.346;12.372;2024-03-02T07:04:56;8.90;99.90
36372;DHT22;22398;51.346;12.372;2024-03-02T07:09:59;9.00;99.90
36372;DHT22;22398;51.346;12.372;2024-03-02T07:15:05;9.10;99.90
36372;DHT22;22398;51.346;12.372;2024-03-02T07:20:27;9.20;99.90
36372;DHT22;22398;51.346;12.372;2024-03-02T07:25:30;9.20;99.90
36372;DHT22;22398;51.346;12.372;2024-03-02T07:30:37;9.30;99.90
36372;DHT22;22398;51.346;12.372;2024-03-02T07:35:41;9.30;99.90
36372;DHT22;22398;51.346;12.372;2024-03-02T07:40:45;9.40;99.90
36372;DHT22;22398;51.346;12.372;2024-03-02T07:45:49;9.30;99.90
36372;DHT22;22398;51.346;12.372;2024-03-02T07:50:53;9.30;99.90
36372;DHT22;22398;51.346;12.372;2024-03-02T07:55:56;9.30;99.90
36372;DHT22;22398;51.346;12.372;2024-03-02T08:01:05;9.50;99.90
36372;DHT22;22398;51.346;12.372;2024-03-02T08:06:08;9.70;99.90
36372;DHT22;22398;51.346;12.372;2024-03-02T08:11:12;9.80;99.80
36372;DHT22;22398;51.346;12.372;2024-03-02T08:16:17;9.90;99.60
36372;DHT22;22398;51.346;12.372;2024-03-02T08:21:21;9.90;99.30
36372;DHT22;22398;51.346;12.372;2024-03-02T08:26:25;10.00;99.10
36372;DHT22;22398;51.346;12.372;2024-03-02T08:31:32;10.20;99.10
36372;DHT22;22398;51.346;12.372;2024-03-02T08:36:35;10.30;98.70
36372;DHT22;22398;51.346;12.372;2024-03-02T08:41:39;10.30;98.60
36372;DHT22;22398;51.346;12.372;2024-03-02T08:46:44;10.50;98.40
36372;DHT22;22398;51.346;12.372;2024-03-02T08:51:47;10.60;98.10
36372;DHT22;22398;51.346;12.372;2024-03-02T08:56:56;10.70;97.80
36372;DHT22;22398;51.346;12.372;2024-03-02T09:02:01;10.80;97.50
36372;DHT22;22398;51.346;12.372;2024-03-02T09:07:05;10.90;97.40
36372;DHT22;22398;51.346;12.372;2024-03-02T09:12:09;11.00;97.00
36372;DHT22;22398;51.346;12.372;2024-03-02T09:17:14;11.20;96.70
36372;DHT22;22398;51.346;12.372;2024-03-02T09:22:17;11.60;96.50
36372;DHT22;22398;51.346;12.372;2024-03-02T09:27:21;11.90;96.00
36372;DHT22;22398;51.346;12.372;2024-03-02T09:32:26;12.00;95.20
36372;DHT22;22398;51.346;12.372;2024-03-02T09:37:29;12.00;94.90
36372;DHT22;22398;51.346;12.372;2024-03-02T09:42:32;12.20;94.60
36372;DHT22;22398;51.346;12.372;2024-03-02T09:47:37;12.40;94.10
36372;DHT22;22398;51.346;12.372;2024-03-02T09:52:42;12.50;93.60
36372;DHT22;22398;51.346;12.372;2024-03-02T09:57:46;12.60;93.20
36372;DHT22;22398;51.346;12.372;2024-03-02T10:02:52;12.60;92.70
36372;DHT22;22398;51.346;12.372;2024-03-02T10:08:02;12.60;92.40
36372;DHT22;22398;51.346;12.372;2024-03-02T10:13:06;12.80;92.00
36372;DHT22;22398;51.346;12.372;2024-03-02T10:18:12;12.90;91.80
36372;DHT22;22398;51.346;12.372;2024-03-02T10:23:17;13.30;91.60
36372;DHT22;22398;51.346;12.372;2024-03-02T10:28:22;13.70;91.30
36372;DHT22;22398;51.346;12.372;2024-03-02T10:33:28;14.30;90.80
36372;DHT22;22398;51.346;12.372;2024-03-02T10:38:31;14.70;90.20
36372;DHT22;22398;51.346;12.372;2024-03-02T10:43:35;14.80;88.80
36372;DHT22;22398;51.346;12.372;2024-03-02T10:48:41;14.90;87.40
36372;DHT22;22398;51.346;12.372;2024-03-02T10:53:47;14.90;86.60
36372;DHT22;22398;51.346;12.372;2024-03-02T10:58:51;15.20;85.60
36372;DHT22;22398;51.346;12.372;2024-03-02T11:04:02;15.10;84.10
36372;DHT22;22398;51.346;12.372;2024-03-02T11:09:08;15.20;83.60
36372;DHT22;22398;51.346;12.372;2024-03-02T11:14:14;15.40;82.70
36372;DHT22;22398;51.346;12.372;2024-03-02T11:19:21;15.30;81.40
36372;DHT22;22398;51.346;12.372;2024-03-02T11:24:31;15.30;80.90
36372;DHT22;22398;51.346;12.372;2024-03-02T11:29:43;15.20;79.90
36372;DHT22;22398;51.346;12.372;2024-03-02T11:34:50;15.40;79.90
36372;DHT22;22398;51.346;12.372;2024-03-02T11:39:53;15.60;79.30
36372;DHT22;22398;51.346;12.372;2024-03-02T11:44:57;15.60;78.70
36372;DHT22;22398;51.346;12.372;2024-03-02T11:50:02;15.70;78.30
36372;DHT22;22398;51.346;12.372;2024-03-02T11:55:10;15.70;77.60
36372;DHT22;22398;51.346;12.372;2024-03-02T12:00:17;15.50;77.20
36372;DHT22;22398;51.346;12.372;2024-03-02T12:05:22;15.40;76.90
36372;DHT22;22398;51.346;12.372;2024-03-02T12:10:26;15.50;76.70
36372;DHT22;22398;51.346;12.372;2024-03-02T12:15:31;15.20;76.00
36372;DHT22;22398;51.346;12.372;2024-03-02T12:20:36;15.10;75.80
36372;DHT22;22398;51.346;12.372;2024-03-02T12:25:39;15.30;75.80
36372;DHT22;22398;51.346;12.372;2024-03-02T12:30:43;15.60;75.70
36372;DHT22;22398;51.346;12.372;2024-03-02T12:35:49;15.70;75.20
36372;DHT22;22398;51.346;12.372;2024-03-02T12:40:53;15.40;74.60
36372;DHT22;22398;51.346;12.372;2024-03-02T12:45:56;15.30;74.60
36372;DHT22;22398;51.346;12.372;2024-03-02T12:51:02;15.20;74.70
36372;DHT22;22398;51.346;12.372;2024-03-02T12:56:05;15.40;74.60
36372;DHT22;22398;51.346;12.372;2024-03-02T13:01:11;15.40;74.10
36372;DHT22;22398;51.346;12.372;2024-03-02T13:06:18;15.50;73.80
36372;DHT22;22398;51.346;12.372;2024-03-02T13:11:24;15.50;73.20
36372;DHT22;22398;51.346;12.372;2024-03-02T13:16:28;15.40;73.00
36372;DHT22;22398;51.346;12.372;2024-03-02T13:21:42;15.40;72.80
36372;DHT22;22398;51.346;12.372;2024-03-02T13:26:46;15.60;72.60
36372;DHT22;22398;51.346;12.372;2024-03-02T13:31:49;15.70;72.20
36372;DHT22;22398;51.346;12.372;2024-03-02T13:36:56;15.80;72.00
36372;DHT22;22398;51.346;12.372;2024-03-02T13:41:59;15.80;71.70
36372;DHT22;22398;51.346;12.372;2024-03-02T13:47:06;15.80;71.70
36372;DHT22;22398;51.346;12.372;2024-03-02T13:52:11;15.90;72.00
36372;DHT22;22398;51.346;12.372;2024-03-02T13:57:15;15.90;71.60
36372;DHT22;22398;51.346;12.372;2024-03-02T14:02:25;15.70;71.80
36372;DHT22;22398;51.346;12.372;2024-03-02T14:07:30;15.80;71.90
36372;DHT22;22398;51.346;12.372;2024-03-02T14:12:33;15.80;71.40
36372;DHT22;22398;51.346;12.372;2024-03-02T14:17:37;15.80;71.50
36372;DHT22;22398;51.346;12.372;2024-03-02T14:22:41;15.80;71.50
36372;DHT22;22398;51.346;12.372;2024-03-02T14:27:45;15.60;71.30
36372;DHT22;22398;51.346;12.372;2024-03-02T14:33:08;15.40;71.40
36372;DHT22;22398;51.346;12.372;2024-03-02T14:38:14;15.20;71.50
36372;DHT22;22398;51.346;12.372;2024-03-02T14:43:17;15.30;71.70
36372;DHT22;22398;51.346;12.372;2024-03-02T14:48:21;15.20;71.50
36372;DHT22;22398;51.346;12.372;2024-03-02T14:53:25;15.10;71.40
36372;DHT22;22398;51.346;12.372;2024-03-02T14:58:29;15.10;71.30
36372;DHT22;22398;51.346;12.372;2024-03-02T15:03:32;14.90;71.50
36372;DHT22;22398;51.346;12.372;2024-03-02T15:08:37;14.80;71.80
36372;DHT22;22398;51.346;12.372;2024-03-02T15:13:43;14.70;72.00
36372;DHT22;22398;51.346;12.372;2024-03-02T15:18:47;14.50;72.20
36372;DHT22;22398;51.346;12.372;2024-03-02T15:23:51;14.40;72.50
36372;DHT22;22398;51.346;12.372;2024-03-02T15:28:55;14.30;72.70
36372;DHT22;22398;51.346;12.372;2024-03-02T15:34:01;14.30;73.00
36372;DHT22;22398;51.346;12.372;2024-03-02T15:39:06;14.20;73.00
36372;DHT22;22398;51.346;12.372;2024-03-02T15:44:11;14.00;73.30
36372;DHT22;22398;51.346;12.372;2024-03-02T15:49:14;13.90;73.70
36372;DHT22;22398;51.346;12.372;2024-03-02T15:54:23;13.80;74.00
36372;DHT22;22398;51.346;12.372;2024-03-02T15:59:26;13.70;74.20
36372;DHT22;22398;51.346;12.372;2024-03-02T16:04:29;13.70;74.50
36372;DHT22;22398;51.346;12.372;2024-03-02T16:09:34;13.60;74.90
36372;DHT22;22398;51.346;12.372;2024-03-02T16:14:38;13.50;75.40
36372;DHT22;22398;51.346;12.372;2024-03-02T16:19:41;13.30;75.80
36372;DHT22;22398;51.346;12.372;2024-03-02T16:24:46;13.10;76.20
36372;DHT22;22398;51.346;12.372;2024-03-02T16:29:49;12.90;76.70
36372;DHT22;22398;51.346;12.372;2024-03-02T16:34:53;12.70;77.20
36372;DHT22;22398;51.346;12.372;2024-03-02T16:39:59;12.50;77.60
36372;DHT22;22398;51.346;12.372;2024-03-02T16:45:02;12.40;78.10
36372;DHT22;22398;51.346;12.372;2024-03-02T16:50:07;12.20;78.50
36372;DHT22;22398;51.346;12.372;2024-03-02T16:55:15;12.10;78.90
36372;DHT22;22398;51.346;12.372;2024-03-02T17:00:19;11.90;79.40
36372;DHT22;22398;51.346;12.372;2024-03-02T17:05:23;11.80;79.90
36372;DHT22;22398;51.346;12.372;2024-03-02T17:10:27;11.60;80.50
36372;DHT22;22398;51.346;12.372;2024-03-02T17:15:31;11.50;81.10
36372;DHT22;22398;51.346;12.372;2024-03-02T17:20:34;11.30;81.70
36372;DHT22;22398;51.346;12.372;2024-03-02T17:25:39;11.20;82.40
36372;DHT22;22398;51.346;12.372;2024-03-02T17:30:42;11.10;83.10
36372;DHT22;22398;51.346;12.372;2024-03-02T17:35:45;11.00;83.70
36372;DHT22;22398;51.346;12.372;2024-03-02T17:40:50;10.90;84.30
36372;DHT22;22398;51.346;12.372;2024-03-02T17:45:54;10.80;84.90
36372;DHT22;22398;51.346;12.372;2024-03-02T17:50:57;10.70;85.50
36372;DHT22;22398;51.346;12.372;2024-03-02T17:56:02;10.60;86.60
36372;DHT22;22398;51.346;12.372;2024-03-02T18:01:07;10.60;86.80
36372;DHT22;22398;51.346;12.372;2024-03-02T18:06:13;10.50;87.40
36372;DHT22;22398;51.346;12.372;2024-03-02T18:11:18;10.50;88.00
36372;DHT22;22398;51.346;12.372;2024-03-02T18:16:22;10.40;88.50
36372;DHT22;22398;51.346;12.372;2024-03-02T18:21:26;10.30;88.90
36372;DHT22;22398;51.346;12.372;2024-03-02T18:26:31;10.20;89.50
36372;DHT22;22398;51.346;12.372;2024-03-02T18:31:36;10.10;89.90
36372;DHT22;22398;51.346;12.372;2024-03-02T18:36:40;10.10;90.10
36372;DHT22;22398;51.346;12.372;2024-03-02T18:41:45;10.00;90.30
36372;DHT22;22398;51.346;12.372;2024-03-02T18:46:49;9.90;90.40
36372;DHT22;22398;51.346;12.372;2024-03-02T18:51:52;9.90;90.50
36372;DHT22;22398;51.346;12.372;2024-03-02T18:56:57;9.80;90.70
36372;DHT22;22398;51.346;12.372;2024-03-02T19:02:00;9.80;90.80
36372;DHT22;22398;51.346;12.372;2024-03-02T19:07:04;9.70;90.90
36372;DHT22;22398;51.346;12.372;2024-03-02T19:12:09;9.70;91.00
36372;DHT22;22398;51.346;12.372;2024-03-02T19:17:12;9.70;91.10
36372;DHT22;22398;51.346;12.372;2024-03-02T19:22:16;9.60;91.20
36372;DHT22;22398;51.346;12.372;2024-03-02T19:27:20;9.60;91.30
36372;DHT22;22398;51.346;12.372;2024-03-02T19:32:24;9.50;91.50
36372;DHT22;22398;51.346;12.372;2024-03-02T19:37:27;9.40;91.50
36372;DHT22;22398;51.346;12.372;2024-03-02T19:42:32;9.30;91.60
36372;DHT22;22398;51.346;12.372;2024-03-02T19:47:37;9.30;91.80
36372;DHT22;22398;51.346;12.372;2024-03-02T19:52:40;9.30;91.90
36372;DHT22;22398;51.346;12.372;2024-03-02T19:57:45;9.20;92.00
36372;DHT22;22398;51.346;12.372;2024-03-02T20:02:48;9.10;92.10
36372;DHT22;22398;51.346;12.372;2024-03-02T20:07:52;9.10;92.30
36372;DHT22;22398;51.346;12.372;2024-03-02T20:12:57;9.00;92.40
36372;DHT22;22398;51.346;12.372;2024-03-02T20:18:01;9.10;92.60
36372;DHT22;22398;51.346;12.372;2024-03-02T20:23:04;9.00;92.80
36372;DHT22;22398;51.346;12.372;2024-03-02T20:28:09;9.00;92.90
36372;DHT22;22398;51.346;12.372;2024-03-02T20:33:13;9.00;93.20
36372;DHT22;22398;51.346;12.372;2024-03-02T20:38:17;9.10;93.50
36372;DHT22;22398;51.346;12.372;2024-03-02T20:43:22;9.10;93.70
36372;DHT22;22398;51.346;12.372;2024-03-02T20:48:25;9.00;93.70
36372;DHT22;22398;51.346;12.372;2024-03-02T20:53:30;8.90;93.80
36372;DHT22;22398;51.346;12.372;2024-03-02T20:58:35;8.90;94.00
36372;DHT22;22398;51.346;12.372;2024-03-02T21:03:38;8.80;94.30
36372;DHT22;22398;51.346;12.372;2024-03-02T21:08:42;8.80;94.50
36372;DHT22;22398;51.346;12.372;2024-03-02T21:13:47;8.80;94.70
36372;DHT22;22398;51.346;12.372;2024-03-02T21:18:51;8.70;94.90
36372;DHT22;22398;51.346;12.372;2024-03-02T21:23:55;8.80;95.10
36372;DHT22;22398;51.346;12.372;2024-03-02T21:29:00;8.70;95.30
36372;DHT22;22398;51.346;12.372;2024-03-02T21:34:06;8.70;95.50
36372;DHT22;22398;51.346;12.372;2024-03-02T21:39:09;8.60;95.60
36372;DHT22;22398;51.346;12.372;2024-03-02T21:44:14;8.70;95.90
36372;DHT22;22398;51.346;12.372;2024-03-02T21:49:17;8.60;96.10
36372;DHT22;22398;51.346;12.372;2024-03-02T21:54:21;8.60;96.20
36372;DHT22;22398;51.346;12.372;2024-03-02T21:59:26;8.50;96.40
36372;DHT22;22398;51.346;12.372;2024-03-02T22:04:29;8.40;96.60
36372;DHT22;22398;51.346;12.372;2024-03-02T22:09:33;8.30;96.80
36372;DHT22;22398;51.346;12.372;2024-03-02T22:14:38;8.30;97.00
36372;DHT22;22398;51.346;12.372;2024-03-02T22:19:41;8.30;97.20
36372;DHT22;22398;51.346;12.372;2024-03-02T22:24:45;8.20;97.40
36372;DHT22;22398;51.346;12.372;2024-03-02T22:29:50;8.10;97.60
36372;DHT22;22398;51.346;12.372;2024-03-02T22:34:53;8.00;97.70
36372;DHT22;22398;51.346;12.372;2024-03-02T22:39:57;7.90;97.80
36372;DHT22;22398;51.346;12.372;2024-03-02T22:45:02;7.80;98.00
36372;DHT22;22398;51.346;12.372;2024-03-02T22:50:06;7.70;98.30
36372;DHT22;22398;51.346;12.372;2024-03-02T22:55:10;7.60;98.50
36372;DHT22;22398;51.346;12.372;2024-03-02T23:00:15;7.50;98.80
36372;DHT22;22398;51.346;12.372;2024-03-02T23:05:33;7.50;99.20
36372;DHT22;22398;51.346;12.372;2024-03-02T23:10:36;7.40;99.50
36372;DHT22;22398;51.346;12.372;2024-03-02T23:15:41;7.40;99.80
36372;DHT22;22398;51.346;12.372;2024-03-02T23:20:45;7.40;99.90
36372;DHT22;22398;51.346;12.372;2024-03-02T23:25:49;7.30;99.90
36372;DHT22;22398;51.346;12.372;2024-03-02T23:30:54;7.30;99.90
36372;DHT22;22398;51.346;12.372;2024-03-02T23:35:58;7.20;99.90
36372;DHT22;22398;51.346;12.372;2024-03-02T23:41:01;7.20;99.90
36372;DHT22;22398;51.346;12.372;2024-03-02T23:46:13;7.20;99.90
36372;DHT22;22398;51.346;12.372;2024-03-02T23:51:17;7.20;99.90
36372;DHT22;22398;51.346;12.372;2024-03-02T23:56:21;7.20;99.90
